GCOOS Metocean: In Situ Observing System
   
Brought to you by NOAA NMFS SWFSC ERD    

ERDDAP > Out-Of-Date Datasets

The outOfDate index is a simplistic measure of how out-of-date a dataset is: <0: unexpectedly from the future(!), <1: up-to-date, >=1: out-of-date, >=2: very out-of-date. For out-of-date datasets, there is presumably a problem with the data source, so ERDDAP is unable to access data from more recent time points.

65 matching datasets. This web page was generated at 2020-11-25T22:49:39Z .

outOfDate testOutOfDate maxTime datasetID title
███ 0.9185982 now-61days 2020-09-30T22:00:00Z LDN-SCCF-18-wturb-01 Turbidity for ioos-station-SCCF-18, Sensor 01
███ 0.9185982 now-61days 2020-09-30T22:00:00Z LDN-SCCF-56-DO-01 Oxygen for ioos-station-SCCF-56, Sensor 01
███ 0.9185982 now-61days 2020-09-30T22:00:00Z LDN-wmo-42360-airP-01 Air Pressure for ioos-station-wmo-42360, Sensor 01
███ 0.9185982 now-61days 2020-09-30T22:00:00Z LDN-wmo-42360-wind-01 Winds for ioos-station-wmo-42360, Sensor 01
███ 0.91825664 now-61days 2020-09-30T22:30:00Z LDN-wmo-42048-wtemp-01 Water Temperature for ioos-station-wmo-42048, Sensor 01
███ 0.9179151 now-61days 2020-09-30T23:00:00Z LDN-wmo-42049-wvel-01 Ocean Current Profile for ioos-station-wmo-42049, Sensor 01
███ 0.91777855 now-61days 2020-09-30T23:12:00Z LDN-TCOON-005-airP-01 Air Pressure for ioos-station-TCOON-005, Sensor 01
███ 0.91777855 now-61days 2020-09-30T23:12:00Z LDN-TCOON-013-airT-01 Air Temperature for ioos-station-TCOON-013, Sensor 01
███ 0.91777855 now-61days 2020-09-30T23:12:00Z LDN-TCOON-013-wtemp-01 Water Temperature for ioos-station-TCOON-013, Sensor 01
███ 0.91777855 now-61days 2020-09-30T23:12:00Z LDN-TCOON-031-airT-01 Air Temperature for ioos-station-TCOON-031, Sensor 01
███ 0.91777855 now-61days 2020-09-30T23:12:00Z LDN-TCOON-031-ssh-01 Water Level for ioos-station-TCOON-031, Sensor 01
███ 0.91777855 now-61days 2020-09-30T23:12:00Z LDN-TCOON-524-wtemp-01 Water Temperature for ioos-station-TCOON-524, Sensor 01
███ 0.91771024 now-61days 2020-09-30T23:18:00Z LDN-TCOON-003-wind-01 Winds for ioos-station-TCOON-003, Sensor 01
███ 0.91771024 now-61days 2020-09-30T23:18:00Z LDN-TCOON-009-wind-01 Winds for ioos-station-TCOON-009, Sensor 01
███ 0.91771024 now-61days 2020-09-30T23:18:00Z LDN-TCOON-057-wind-01 Winds for ioos-station-TCOON-057, Sensor 01
███ 0.91757363 now-61days 2020-09-30T23:30:00Z LDN-TCOON-146-RH-01 Humidity for ioos-station-TCOON-146, Sensor 01
███ 0.91757363 now-61days 2020-09-30T23:30:00Z LDN-wmo-42043-RH-01 Humidity for ioos-station-wmo-42043, Sensor 01
███ 0.91740286 now-61days 2020-09-30T23:45:00Z LDN-LUMCON-101-RH-01 Humidity for ioos-station-LUMCON-101, Sensor 01
███ 0.91740286 now-61days 2020-09-30T23:45:00Z LDN-LUMCON-wisl1-RH-01 Humidity for ioos-station-LUMCON-wisl1, Sensor 01
███ 0.91740286 now-61days 2020-09-30T23:45:00Z LDN-LUMCON-wisl1-chla-01 Chlorophyll for ioos-station-LUMCON-wisl1, Sensor 01
███ 0.91740286 now-61days 2020-09-30T23:45:00Z LDN-LUMCON-wisl1-wind-01 Winds for ioos-station-LUMCON-wisl1, Sensor 01
███ 0.9173004 now-61days 2020-09-30T23:54:00Z LDN-USF-COMPS-ARP-airT-01 Air Temperature for ioos-station-USF-COMPS-ARP, Sensor 01
███ 0.9173004 now-61days 2020-09-30T23:54:00Z LDN-USF-COMPS-SHP-airT-01 Air Temperature for ioos-station-USF-COMPS-SHP, Sensor 01
███ 0.9173004 now-61days 2020-09-30T23:54:00Z LDN-USF-COMPS-SHP-wind-01 Winds for ioos-station-USF-COMPS-SHP, Sensor 01
███ 0.9164165 now-62days 2020-09-30T03:12:00Z LDN-TCOON-127-wvel-01 Ocean Current Profile for ioos-station-TCOON-127, Sensor 01
███ 0.9128547 now-62days 2020-09-30T08:30:00Z LDN-TCOON-127-DO-01 Oxygen for ioos-station-TCOON-127, Sensor 01
███ 0.8979665 now-65days 2020-09-28T14:00:00Z LDN-wmo-42360-wtemp-01 Water Temperature for ioos-station-wmo-42360, Sensor 01
███ 0.89732546 now-65days 2020-09-28T15:00:00Z LDN-wmo-42095-wtemp-01 Water Temperature for ioos-station-wmo-42095, Sensor 01
███ 0.8970477 now-65days 2020-09-28T15:26:00Z LDN-wmo-42093-wtemp-01 Water Temperature for ioos-station-wmo-42093, Sensor 01
███ 0.8129206 now-82days 2020-09-20T07:00:00Z LDN-DISL-DISL-wturb-01 Turbidity for ioos-station-DISL-DISL, Sensor 01
███ 0.7862551 now-90days 2020-09-16T04:31:00Z LDN-DISL-PPTA-airP-01 Air Pressure for ioos-station-DISL-PPTA, Sensor 01
███ 0.7775488 now-92days 2020-09-15T10:00:00Z LDN-DISL-CATA-wsalt-01 Salinity for ioos-station-DISL-CATA, Sensor 01
███ 0.70909363 now-123days 2020-08-30T17:35:00Z LDN-USF-COMPS-C10-airT-01 Air Temperature for ioos-station-USF-COMPS-C10, Sensor 01
███ 0.70909363 now-123days 2020-08-30T17:35:00Z LDN-USF-COMPS-C10-wind-01 Winds for ioos-station-USF-COMPS-C10, Sensor 01
███ 0.6919221 now-135days 2020-08-24T13:00:00Z LDN-DISL-WECP-wsalt-01 Salinity for ioos-station-DISL-WECP, Sensor 01
███ 0.6919221 now-135days 2020-08-24T13:00:00Z LDN-DISL-WECP-wtemp-01 Water Temperature for ioos-station-DISL-WECP, Sensor 01
███ 0.5911482 now-121days 2020-09-15T10:08:00Z LDN-DISL-CATA-airP-01 Air Pressure for ioos-station-DISL-CATA, Sensor 01
███ 0.5848178 now-121days 2020-09-16T04:31:00Z LDN-DISL-PPTA-RH-01 Humidity for ioos-station-DISL-PPTA, Sensor 01
███ 0.5402633 now-112days 2020-09-26T10:36:00Z LDN-wmo-42370-wvel-03 Ocean Current Profile for ioos-station-wmo-42370, Sensor 03
███ 0.52249575 now-121days 2020-09-23T17:30:00Z LDN-TCOON-043-wtemp-01 Water Temperature for ioos-station-TCOON-043, Sensor 01
███ 0.48237866 now-121days 2020-09-28T14:00:00Z LDN-SCCF-13-wturb-01 Turbidity for ioos-station-SCCF-13, Sensor 01
███ 0.4818851 now-121days 2020-09-28T15:26:00Z LDN-wmo-42097-wtemp-01 Water Temperature for ioos-station-wmo-42097, Sensor 01
███ 0.4818851 now-121days 2020-09-28T15:26:00Z LDN-wmo-42098-wtemp-01 Water Temperature for ioos-station-wmo-42098, Sensor 01
███ 0.46309492 now-121days 2020-09-30T22:00:00Z LDN-wmo-42360-airT-01 Air Temperature for ioos-station-wmo-42360, Sensor 01
███ 0.46300882 now-121days 2020-09-30T22:15:00Z LDN-wmo-lopl1-airT-01 Air Temperature for urn-ioos-station-wmo-lopl1, Sensor 01
███ 0.46275055 now-121days 2020-09-30T23:00:00Z LDN-DISL-MBLA-wind-01 Winds for ioos-station-DISL-MBLA, Sensor 01
███ 0.46275055 now-121days 2020-09-30T23:00:00Z LDN-TCOON-042-wtemp-01 Water Temperature for ioos-station-TCOON-042, Sensor 01
███ 0.46275055 now-121days 2020-09-30T23:00:00Z LDN-WAVCIS-CSI06-airT-01 Air Temperature for ioos-station-WAVCIS-CSI06, Sensor 01
███ 0.46275055 now-121days 2020-09-30T23:00:00Z LDN-wmo-42049-wtemp-01 Water Temperature for ioos-station-wmo-42049, Sensor 01
███ 0.46275055 now-121days 2020-09-30T23:00:00Z LDN-wmo-SIPF1-airP-01 Air Pressure for ioos-station-wmo-SIPF1, Sensor 01
███ 0.46268168 now-121days 2020-09-30T23:12:00Z LDN-TCOON-003-airT-01 Air Temperature for ioos-station-TCOON-003, Sensor 01
███ 0.46268168 now-121days 2020-09-30T23:12:00Z LDN-TCOON-005-wtemp-01 Water Temperature for ioos-station-TCOON-005, Sensor 01
███ 0.46268168 now-121days 2020-09-30T23:12:00Z LDN-TCOON-057-airP-01 Air Pressure for ioos-station-TCOON-057, Sensor 01
███ 0.46268168 now-121days 2020-09-30T23:12:00Z LDN-TCOON-518-ssh-01 Water Level for ioos-station-TCOON-518, Sensor 01
███ 0.46266448 now-121days 2020-09-30T23:15:00Z LDN-LUMCON-102-wsalt-01 Salinity for ioos-station-LUMCON-102, Sensor 01
███ 0.46264726 now-121days 2020-09-30T23:18:00Z LDN-TCOON-009-wtemp-01 Water Temperature for ioos-station-TCOON-009, Sensor 01
███ 0.4625956 now-121days 2020-09-30T23:27:00Z LDN-DISL-BSCA-airP-01 Air Pressure for ioos-station-DISL-BSCA, Sensor 01
███ 0.4625784 now-121days 2020-09-30T23:30:00Z LDN-TCOON-146-airT-01 Air Temperature for ioos-station-TCOON-146, Sensor 01
███ 0.4625784 now-121days 2020-09-30T23:30:00Z LDN-TCOON-171-wsalt-01 Salinity for ioos-station-TCOON-171, Sensor 01
███ 0.4625784 now-121days 2020-09-30T23:30:00Z LDN-wmo-42043-airP-01 Air Pressure for ioos-station-wmo-42043, Sensor 01
███ 0.4625784 now-121days 2020-09-30T23:30:00Z LDN-wmo-42043-airT-01 Air Temperature for ioos-station-wmo-42043, Sensor 01
███ 0.4625784 now-121days 2020-09-30T23:30:00Z LDN-wmo-42043-wtemp-01 Water Temperature for ioos-station-wmo-42043, Sensor 01
███ 0.4624923 now-121days 2020-09-30T23:45:00Z LDN-LUMCON-101-airP-01 Air Pressure for ioos-station-LUMCON-101, Sensor 01
███ 0.4624923 now-121days 2020-09-30T23:45:00Z LDN-LUMCON-wisl1-wtemp-01 Water Temperature for ioos-station-LUMCON-wisl1, Sensor 01
███ 0.46244064 now-121days 2020-09-30T23:54:00Z LDN-USF-COMPS-FHP-ssh-01 Water Level for ioos-station-USF-COMPS-FHP, Sensor 01

This web page was generated at 2020-11-25T22:49:39Z .
This web page will refresh itself automatically every 15 minutes.

Options

You can add tabledap-like constraints to requests to this web page, for example,
https://erddap.gcoos.org/erddap/outOfDateDatasets.html?&outOfDate>=0.5 . Usually, the parameter values in the URL (the parts after '=' signs) must be properly percent encoded (external link): all characters other than A-Za-z0-9_-!.~'()* must be encoded as %HH, where HH is the 2 digit hexadecimal value of the character, for example, a space becomes %20. Characters above #127 must be converted to UTF-8 bytes, then each UTF-8 byte must be percent encoded (ask a programmer for help). There are websites that percent encode and decode for you (external link).

The information in the table above is also available in other file formats (.csv, .htmlTable, .itx, .json, .jsonlCSV1, .jsonlCSV, .jsonlKVP, .mat, .nc, .nccsv, .tsv, .xhtml) via a RESTful web service.


 
ERDDAP, Version 2.02
Disclaimers | Privacy Policy | Contact